EISG/SXL METAR and TAF weather

Enter ICAO airport designator
Station Type Date Time Source
EISG METAR 2019/11/14 18:00 UTC NOAA

EISG 141800Z 02017G31KT 9999 FEW032 SCT040 SCT050 06/03 Q1016


Station Type Date Time Source
EISG Decoded METAR 2019/11/14 18:00 UTC NOAA

Station name not available
Nov 14, 2019 - 01:00 PM EST / 2019.11.14 1800 UTC
Wind: from the NNE (020 degrees) at 20 MPH (17 KT) gusting to 36 MPH (31 KT):0
Visibility: greater than 7 mile(s):0
Sky conditions: partly cloudy
Temperature: 42 F (6 C)
Dew Point: 37 F (3 C)
Relative Humidity: 81%
Pressure (altimeter): 30.00 in. Hg (1016 hPa)
ob: EISG 141800Z 02017G31KT 9999 FEW032 SCT040 SCT050 06/03 Q1016
cycle: 18

Station Type Date Time Source
EISG TAF UTC NOAA

Error!

Example: see airport list